Time;durP1;ratioP1;P1;durP2;ratioP2;P2;SDS_P1;SDS_P2;PMS_P1;PMS_P2;Temp;Humidity;BMP_temperature;BMP_pressure;BME280_temperature;BME280_humidity;BME280_pressure;Samples;Min_cycle;Max_cycle;Signal;HPM_P1;HPM_P2
2023/04/04 00:00:10;;;;;;;;;;;;;;;4.28;35.98;100683.94;5357912;32;44670;-65
2023/04/04 00:03:12;;;;;;;;;;;;;;;4.48;35.54;100660.34;5363835;32;33728;-65
2023/04/04 00:06:14;;;;;;;;;;;;;;;4.33;36.19;100677.84;5341501;32;33976;-62
2023/04/04 00:09:16;;;;;;;;;;;;;;;4.53;36.17;100690.66;5355860;32;33386;-62
2023/04/04 00:12:18;;;;;;;;;;;;;;;4.41;36.25;100687.31;5371967;32;33738;-64
2023/04/04 00:15:19;;;;;;;;;;;;;;;4.33;36.84;100679.56;5355136;32;33172;-66
2023/04/04 00:18:21;;;;;;;;;;;;;;;4.17;37.32;100696.19;5370624;32;34288;-64
2023/04/04 00:21:26;;;;;;;;;;;;;;;4.30;37.00;100696.06;5356877;32;34270;-62
2023/04/04 00:24:28;;;;;;;;;;;;;;;4.00;37.62;100702.38;5366844;32;34180;-65
2023/04/04 00:27:30;;;;;;;;;;;;;;;4.07;37.83;100698.00;5361907;32;34489;-65
2023/04/04 00:30:32;;;;;;;;;;;;;;;3.72;37.62;100709.47;5357355;32;33815;-65
2023/04/04 00:33:34;;;;;;;;;;;;;;;3.52;38.11;100711.34;5368709;32;34583;-63
2023/04/04 00:36:36;;;;;;;;;;;;;;;3.86;37.71;100705.94;5356519;32;33125;-63
2023/04/04 00:39:38;;;;;;;;;;;;;;;4.44;36.32;100714.16;5370805;32;33647;-65
2023/04/04 00:42:40;;;;;;;;;;;;;;;4.25;36.61;100710.88;5362247;32;44403;-63
2023/04/04 00:45:42;;;;;;;;;;;;;;;3.84;37.04;100708.53;5365422;32;32968;-65
2023/04/04 00:48:44;;;;;;;;;;;;;;;3.87;36.97;100712.88;5360759;32;33633;-62
2023/04/04 00:51:46;;;;;;;;;;;;;;;3.67;37.29;100706.06;5357469;32;33016;-65
2023/04/04 00:54:47;;;;;;;;;;;;;;;3.69;37.24;100708.66;5373078;32;34066;-62
2023/04/04 00:57:49;;;;;;;;;;;;;;;3.75;37.23;100706.03;5360398;32;32932;-66
2023/04/04 01:00:51;;;;;;;;;;;;;;;3.86;37.51;100698.13;5369144;32;34246;-65
2023/04/04 01:03:53;;;;;;;;;;;;;;;4.63;35.99;100675.78;5345985;32;33801;-62
2023/04/04 01:06:55;;;;;;;;;;;;;;;4.62;36.33;100674.06;5354129;32;34679;-63
2023/04/04 01:09:57;;;;;;;;;;;;;;;4.27;36.07;100672.69;5364764;32;33778;-64
2023/04/04 01:12:59;;;;;;;;;;;;;;;4.38;36.70;100669.09;5359624;32;34040;-66
2023/04/04 01:16:01;;;;;;;;;;;;;;;3.63;37.53;100661.91;5372345;32;35441;-65
2023/04/04 01:19:03;;;;;;;;;;;;;;;3.74;37.80;100666.16;5355448;32;34006;-65
2023/04/04 01:22:05;;;;;;;;;;;;;;;3.73;37.72;100658.34;5371516;32;34163;-65
2023/04/04 01:25:07;;;;;;;;;;;;;;;3.65;37.89;100655.81;5359107;32;33790;-64
2023/04/04 01:28:09;;;;;;;;;;;;;;;3.47;38.43;100653.31;5363937;32;46545;-66
2023/04/04 01:31:11;;;;;;;;;;;;;;;3.36;38.37;100642.16;5372907;32;34824;-63
2023/04/04 01:34:19;;;;;;;;;;;;;;;3.26;38.47;100644.78;5356863;32;34341;-64
2023/04/04 01:37:21;;;;;;;;;;;;;;;3.07;38.77;100631.88;5368154;32;33814;-62
2023/04/04 01:40:24;;;;;;;;;;;;;;;3.15;39.01;100611.94;5357682;32;33846;-63
2023/04/04 01:43:26;;;;;;;;;;;;;;;3.06;39.34;100623.22;5372370;32;33757;-65
2023/04/04 01:46:28;;;;;;;;;;;;;;;3.55;38.71;100617.78;5358728;32;33433;-63
2023/04/04 01:49:30;;;;;;;;;;;;;;;3.04;39.44;100617.19;5361916;32;34288;-62
2023/04/04 01:52:33;;;;;;;;;;;;;;;3.09;39.44;100617.16;5368567;32;34500;-64
2023/04/04 01:55:35;;;;;;;;;;;;;;;2.89;39.79;100609.47;5358013;32;34212;-65
2023/04/04 01:58:37;;;;;;;;;;;;;;;3.44;39.02;100594.44;5375055;32;33154;-64
2023/04/04 02:01:39;;;;;;;;;;;;;;;3.07;39.49;100604.19;5361158;32;44354;-62
2023/04/04 02:04:41;;;;;;;;;;;;;;;3.03;39.65;100596.41;5358025;32;32856;-65
2023/04/04 02:07:46;;;;;;;;;;;;;;;3.12;39.53;100594.62;5353954;32;33939;-63
2023/04/04 02:10:48;;;;;;;;;;;;;;;3.36;39.37;100588.44;5362807;32;33044;-64
2023/04/04 02:13:49;;;;;;;;;;;;;;;2.93;40.14;100574.84;5371224;32;33915;-63
2023/04/04 02:16:51;;;;;;;;;;;;;;;3.01;40.19;100580.84;5358368;32;33252;-65
2023/04/04 02:19:54;;;;;;;;;;;;;;;2.67;41.40;100575.81;5374679;32;34268;-65
2023/04/04 02:22:56;;;;;;;;;;;;;;;3.19;40.28;100569.50;5356130;32;34494;-62
2023/04/04 02:25:58;;;;;;;;;;;;;;;3.06;40.52;100575.63;5371292;32;33854;-61
2023/04/04 02:29:00;;;;;;;;;;;;;;;3.29;40.58;100562.53;5358952;32;34128;-66
2023/04/04 02:32:02;;;;;;;;;;;;;;;3.11;41.06;100555.69;5359411;32;33623;-62
2023/04/04 02:35:04;;;;;;;;;;;;;;;2.77;41.58;100565.38;5374957;32;33346;-63
2023/04/04 02:38:06;;;;;;;;;;;;;;;2.92;41.56;100565.31;5357289;32;33681;-64
2023/04/04 02:41:08;;;;;;;;;;;;;;;2.55;42.39;100552.50;5373783;32;36633;-65
2023/04/04 02:44:10;;;;;;;;;;;;;;;3.29;41.05;100549.53;5357711;32;34688;-64
2023/04/04 02:47:12;;;;;;;;;;;;;;;3.58;40.56;100544.97;5370815;32;34659;-63
2023/04/04 02:50:15;;;;;;;;;;;;;;;2.22;42.85;100550.00;5360690;32;34394;-61
2023/04/04 02:53:16;;;;;;;;;;;;;;;2.52;42.42;100565.50;5361439;32;34228;-64
2023/04/04 02:56:18;;;;;;;;;;;;;;;2.67;42.01;100565.44;5372747;32;35663;-61
2023/04/04 02:59:20;;;;;;;;;;;;;;;2.42;42.58;100566.37;5357319;32;33185;-62
2023/04/04 03:02:23;;;;;;;;;;;;;;;2.84;41.86;100557.56;5370763;32;34061;-63
2023/04/04 03:05:25;;;;;;;;;;;;;;;3.40;40.85;100560.69;5339766;32;34386;-62
2023/04/04 03:08:27;;;;;;;;;;;;;;;2.94;41.47;100561.84;5370906;32;34018;-62
2023/04/04 03:11:30;;;;;;;;;;;;;;;3.26;40.99;100581.56;5360036;32;33945;-63
2023/04/04 03:14:32;;;;;;;;;;;;;;;3.04;41.32;100565.25;5358460;32;33734;-62
2023/04/04 03:17:34;;;;;;;;;;;;;;;2.63;42.01;100568.87;5372266;32;34168;-64
2023/04/04 03:20:36;;;;;;;;;;;;;;;2.67;42.32;100575.81;5355785;32;33368;-64
2023/04/04 03:23:38;;;;;;;;;;;;;;;2.90;41.34;100577.47;5372806;32;33229;-62
2023/04/04 03:26:41;;;;;;;;;;;;;;;2.53;41.92;100575.00;5356264;32;44562;-65
2023/04/04 03:29:43;;;;;;;;;;;;;;;2.53;42.32;100564.62;5372328;32;33377;-63
2023/04/04 03:32:44;;;;;;;;;;;;;;;2.64;42.10;100578.44;5363873;32;33724;-64
2023/04/04 03:35:46;;;;;;;;;;;;;;;3.34;41.23;100576.31;5359420;32;33684;-63
2023/04/04 03:38:48;;;;;;;;;;;;;;;3.42;40.79;100578.00;5373225;32;33300;-63
2023/04/04 03:41:50;;;;;;;;;;;;;;;2.67;41.67;100586.19;5357076;32;33069;-62
2023/04/04 03:44:52;;;;;;;;;;;;;;;3.26;41.14;100585.03;5373613;32;33881;-62
2023/04/04 03:47:54;;;;;;;;;;;;;;;3.24;40.95;100589.37;5355794;32;34113;-66
2023/04/04 03:50:56;;;;;;;;;;;;;;;3.07;41.04;100598.12;5371977;32;34245;-64
2023/04/04 03:53:58;;;;;;;;;;;;;;;3.28;40.71;100586.75;5358543;32;34607;-62
2023/04/04 03:57:00;;;;;;;;;;;;;;;3.48;39.97;100574.50;5356334;32;33697;-62
2023/04/04 04:00:03;;;;;;;;;;;;;;;3.12;40.87;100591.19;5373286;32;34108;-62
2023/04/04 04:03:05;;;;;;;;;;;;;;;3.56;40.20;100580.50;5351403;32;33514;-62
2023/04/04 04:06:07;;;;;;;;;;;;;;;4.11;38.92;100579.16;5353243;32;34045;-62
2023/04/04 04:09:11;;;;;;;;;;;;;;;3.05;41.21;100581.69;5356393;32;45346;-64
2023/04/04 04:12:13;;;;;;;;;;;;;;;3.14;40.69;100553.94;5369118;32;34057;-65
2023/04/04 04:15:15;;;;;;;;;;;;;;;2.85;41.50;100582.66;5359457;32;33556;-62
2023/04/04 04:18:17;;;;;;;;;;;;;;;3.17;41.12;100577.31;5355274;32;33598;-65
2023/04/04 04:21:18;;;;;;;;;;;;;;;3.34;40.97;100573.72;5369265;32;33594;-63
2023/04/04 04:24:21;;;;;;;;;;;;;;;2.97;40.79;100576.56;5355740;32;34233;-66
2023/04/04 04:27:23;;;;;;;;;;;;;;;2.86;41.34;100583.53;5372025;32;33668;-62
2023/04/04 04:30:25;;;;;;;;;;;;;;;3.12;40.64;100555.69;5356432;32;33665;-65
2023/04/04 04:33:28;;;;;;;;;;;;;;;3.80;39.86;100571.66;5370909;32;33809;-62
2023/04/04 04:36:30;;;;;;;;;;;;;;;3.12;40.39;100573.00;5359330;32;33673;-64
2023/04/04 04:39:32;;;;;;;;;;;;;;;3.48;39.68;100538.13;5356136;32;33814;-66
2023/04/04 04:42:34;;;;;;;;;;;;;;;3.27;40.44;100570.31;5374176;32;33867;-66
2023/04/04 04:45:37;;;;;;;;;;;;;;;3.20;40.51;100566.03;5356846;32;33392;-62
2023/04/04 04:48:38;;;;;;;;;;;;;;;3.68;39.39;100564.81;5372850;32;45162;-65
2023/04/04 04:51:41;;;;;;;;;;;;;;;3.89;38.83;100548.16;5355496;32;34137;-62
2023/04/04 04:54:43;;;;;;;;;;;;;;;4.01;38.65;100566.25;5368712;32;34104;-65
2023/04/04 04:57:46;;;;;;;;;;;;;;;2.93;40.78;100577.44;5362758;32;33847;-64
2023/04/04 05:00:47;;;;;;;;;;;;;;;3.43;39.73;100569.34;5356690;32;32971;-65
2023/04/04 05:03:50;;;;;;;;;;;;;;;4.04;38.94;100563.63;5361853;32;36505;-63
2023/04/04 05:06:54;;;;;;;;;;;;;;;3.81;38.76;100557.78;5348051;32;33750;-63
2023/04/04 05:09:56;;;;;;;;;;;;;;;2.85;40.71;100556.69;5375212;32;34726;-65
2023/04/04 05:12:58;;;;;;;;;;;;;;;3.06;39.99;100550.53;5358163;32;33462;-62
2023/04/04 05:16:00;;;;;;;;;;;;;;;2.90;40.37;100559.28;5368343;32;33532;-65
2023/04/04 05:19:02;;;;;;;;;;;;;;;3.41;39.77;100563.28;5364062;32;34375;-63
2023/04/04 05:22:06;;;;;;;;;;;;;;;4.23;38.01;100558.22;5355623;32;33726;-65
2023/04/04 05:25:08;;;;;;;;;;;;;;;3.56;39.22;100554.53;5373595;32;34026;-64
2023/04/04 05:28:10;;;;;;;;;;;;;;;3.25;39.74;100570.31;5355527;32;45022;-65
2023/04/04 05:31:12;;;;;;;;;;;;;;;3.32;39.98;100583.28;5375677;32;33152;-65
2023/04/04 05:34:13;;;;;;;;;;;;;;;3.45;39.63;100544.19;5358806;32;32921;-65
2023/04/04 05:37:16;;;;;;;;;;;;;;;4.27;38.55;100567.75;5365351;32;33178;-64
2023/04/04 05:40:18;;;;;;;;;;;;;;;4.35;37.77;100576.31;5371006;32;34099;-64
2023/04/04 05:43:20;;;;;;;;;;;;;;;4.30;37.05;100575.50;5356936;32;33876;-65
2023/04/04 05:46:22;;;;;;;;;;;;;;;5.08;36.32;100578.03;5374119;32;33373;-60
2023/04/04 05:49:24;;;;;;;;;;;;;;;5.27;36.21;100576.03;5355880;32;34385;-65
2023/04/04 05:52:26;;;;;;;;;;;;;;;5.71;34.81;100574.50;5371620;32;33139;-65
2023/04/04 05:55:28;;;;;;;;;;;;;;;4.54;36.75;100569.16;5359647;32;34245;-65
2023/04/04 05:58:30;;;;;;;;;;;;;;;4.68;37.28;100582.03;5367316;32;34793;-68
2023/04/04 06:01:32;;;;;;;;;;;;;;;5.04;36.42;100589.37;5368210;32;33736;-65
2023/04/04 06:04:34;;;;;;;;;;;;;;;5.39;36.21;100575.84;5348149;32;34984;-63
2023/04/04 06:07:37;;;;;;;;;;;;;;;6.07;34.88;100591.31;5372382;32;34620;-63
2023/04/04 06:10:39;;;;;;;;;;;;;;;6.21;34.08;100591.06;5338680;32;853271;-67
2023/04/04 06:13:41;;;;;;;;;;;;;;;5.88;35.01;100595.09;5374593;32;32586;-83
2023/04/04 06:16:43;;;;;;;;;;;;;;;6.38;34.43;100581.19;5363377;32;33069;-64
2023/04/04 06:19:45;;;;;;;;;;;;;;;7.77;32.12;100572.06;5366935;32;32908;-67
2023/04/04 06:22:48;;;;;;;;;;;;;;;8.24;30.94;100575.22;5372009;32;33088;-67
2023/04/04 06:25:50;;;;;;;;;;;;;;;8.00;31.63;100574.97;5363316;32;33360;-65
2023/04/04 06:28:54;;;;;;;;;;;;;;;6.88;32.60;100594.97;5362705;32;32735;-65
2023/04/04 06:31:57;;;;;;;;;;;;;;;7.23;32.15;100582.94;5364177;32;32616;-64
2023/04/04 06:34:59;;;;;;;;;;;;;;;8.55;29.68;100562.19;5376600;32;32810;-72
2023/04/04 06:38:03;;;;;;;;;;;;;;;6.75;31.74;100549.09;5353737;32;34574;-69
2023/04/04 06:41:05;;;;;;;;;;;;;;;7.85;30.17;100530.84;5370503;32;34432;-68
2023/04/04 06:44:07;;;;;;;;;;;;;;;7.05;31.33;100545.84;5377683;32;34779;-69
2023/04/04 06:47:09;;;;;;;;;;;;;;;8.21;29.68;100543.88;5358460;32;44755;-73
2023/04/04 06:50:11;;;;;;;;;;;;;;;6.70;31.33;100540.53;5381556;32;34481;-69
2023/04/04 06:53:13;;;;;;;;;;;;;;;5.68;33.12;100540.66;5366510;32;32893;-65
2023/04/04 06:56:15;;;;;;;;;;;;;;;6.03;32.97;100537.44;5344168;32;32856;-65
2023/04/04 06:59:17;;;;;;;;;;;;;;;7.06;31.28;100528.41;5362706;32;34321;-66
2023/04/04 07:02:20;;;;;;;;;;;;;;;6.18;32.68;100544.12;5367681;32;32978;-66
2023/04/04 07:05:22;;;;;;;;;;;;;;;5.98;33.07;100541.87;5358965;32;34782;-66
2023/04/04 07:08:24;;;;;;;;;;;;;;;6.74;32.49;100547.38;5364680;32;33104;-69
2023/04/04 07:11:26;;;;;;;;;;;;;;;7.04;32.04;100543.25;5378415;32;33018;-74
2023/04/04 07:14:28;;;;;;;;;;;;;;;6.69;32.39;100550.09;5364707;32;32998;-71
2023/04/04 07:17:30;;;;;;;;;;;;;;;6.66;32.26;100557.12;5373868;32;34464;-67
2023/04/04 07:20:32;;;;;;;;;;;;;;;6.43;32.49;100557.59;5367328;32;33433;-69
2023/04/04 07:23:35;;;;;;;;;;;;;;;6.34;33.18;100563.00;5363133;32;33084;-66
2023/04/04 07:26:37;;;;;;;;;;;;;;;5.50;34.36;100567.00;5373247;32;34821;-69
2023/04/04 07:29:39;;;;;;;;;;;;;;;6.62;32.74;100566.78;5352168;32;43659;-68
2023/04/04 07:32:41;;;;;;;;;;;;;;;5.87;33.27;100549.88;5376622;32;33099;-70
2023/04/04 07:35:43;;;;;;;;;;;;;;;6.49;33.01;100571.38;5360507;32;35502;-71
2023/04/04 07:38:45;;;;;;;;;;;;;;;5.28;34.64;100559.53;5364295;32;33208;-62
2023/04/04 07:41:48;;;;;;;;;;;;;;;5.82;33.93;100575.19;5366815;32;33239;-70
2023/04/04 07:44:51;;;;;;;;;;;;;;;6.74;32.44;100582.19;5364528;32;33347;-66
2023/04/04 07:47:53;;;;;;;;;;;;;;;7.78;30.81;100560.69;5378458;32;34511;-69
2023/04/04 07:50:55;;;;;;;;;;;;;;;7.64;30.73;100563.66;5366230;32;32910;-74
2023/04/04 07:53:57;;;;;;;;;;;;;;;7.41;30.89;100569.44;5372122;32;32918;-70
2023/04/04 07:56:59;;;;;;;;;;;;;;;7.69;30.47;100572.25;5355400;32;33086;-74
2023/04/04 08:00:01;;;;;;;;;;;;;;;6.99;31.33;100572.09;5380142;32;33037;-70
2023/04/04 08:03:03;;;;;;;;;;;;;;;7.04;31.52;100578.09;5363624;32;34339;-70
2023/04/04 08:06:05;;;;;;;;;;;;;;;6.86;31.13;100588.06;5338261;32;34255;-69
2023/04/04 08:09:07;;;;;;;;;;;;;;;6.08;33.12;100590.41;5376539;32;32726;-67
2023/04/04 08:12:09;;;;;;;;;;;;;;;7.71;30.69;100564.34;5363995;32;44597;-71
2023/04/04 08:15:11;;;;;;;;;;;;;;;7.69;30.68;100555.69;5372741;32;33210;-70
2023/04/04 08:18:14;;;;;;;;;;;;;;;7.59;30.84;100550.66;5360389;32;32790;-69
2023/04/04 08:21:16;;;;;;;;;;;;;;;7.20;30.55;100557.69;5368026;32;33007;-68
2023/04/04 08:24:21;;;;;;;;;;;;;;;7.52;29.94;100572.66;5369721;32;33390;-72
2023/04/04 08:27:23;;;;;;;;;;;;;;;7.40;30.45;100554.63;5359692;32;34260;-69
2023/04/04 08:30:25;;;;;;;;;;;;;;;8.23;29.00;100566.50;5377156;32;33073;-67
2023/04/04 08:33:27;;;;;;;;;;;;;;;8.51;28.39;100552.72;5362358;32;34543;-63
2023/04/04 08:36:45;;;;;;;;;;;;;;;7.52;30.03;100556.94;5374079;32;44697;-70
2023/04/04 08:39:47;;;;;;;;;;;;;;;6.92;30.90;100578.34;5354831;32;33062;-69
2023/04/04 08:42:50;;;;;;;;;;;;;;;8.04;28.95;100571.34;5372508;32;33093;-69
2023/04/04 08:45:52;;;;;;;;;;;;;;;7.99;29.35;100570.62;5372217;32;31969;-67
2023/04/04 08:48:54;;;;;;;;;;;;;;;7.48;29.67;100557.09;5363056;32;33090;-64
2023/04/04 08:51:56;;;;;;;;;;;;;;;7.92;29.19;100545.53;5376915;32;35564;-66
2023/04/04 08:54:58;;;;;;;;;;;;;;;7.91;29.35;100556.00;5363021;32;34561;-68
2023/04/04 08:58:00;;;;;;;;;;;;;;;8.24;28.81;100542.03;5363470;32;34232;-61
2023/04/04 09:01:02;;;;;;;;;;;;;;;8.31;29.24;100541.00;5366425;32;33541;-67
2023/04/04 09:04:04;;;;;;;;;;;;;;;8.52;28.17;100533.47;5357537;32;34316;-64
2023/04/04 09:07:06;;;;;;;;;;;;;;;8.82;28.32;100534.31;5363986;32;33194;-68
2023/04/04 09:10:10;;;;;;;;;;;;;;;9.03;28.45;100535.47;5355458;32;44487;-61
2023/04/04 09:13:12;;;;;;;;;;;;;;;8.74;28.19;100531.06;5373870;32;34420;-65
2023/04/04 09:16:17;;;;;;;;;;;;;;;8.05;29.06;100543.41;5360756;32;32873;-69
2023/04/04 09:19:22;;;;;;;;;;;;;;;8.12;29.43;100532.78;5371965;32;33030;-67
2023/04/04 09:22:27;;;;;;;;;;;;;;;8.31;29.10;100530.53;5354905;32;35279;-67
2023/04/04 09:25:30;;;;;;;;;;;;;;;8.58;28.59;100528.06;5360685;32;32847;-72
2023/04/04 09:28:32;;;;;;;;;;;;;;;8.84;28.29;100538.63;5367931;32;33024;-69
2023/04/04 09:31:34;;;;;;;;;;;;;;;8.82;28.52;100532.59;5359323;32;33283;-69
2023/04/04 09:34:36;;;;;;;;;;;;;;;9.19;27.82;100534.94;5375000;32;33182;-64
2023/04/04 09:37:39;;;;;;;;;;;;;;;8.48;27.88;100531.81;5359676;32;43891;-62
2023/04/04 09:40:41;;;;;;;;;;;;;;;9.31;27.82;100514.47;5372358;32;34415;-63
2023/04/04 09:43:44;;;;;;;;;;;;;;;8.04;29.01;100524.25;5367709;32;33147;-65
2023/04/04 09:46:50;;;;;;;;;;;;;;;8.20;28.94;100524.72;5356690;32;34392;-84
2023/04/04 09:49:56;;;;;;;;;;;;;;;9.09;27.93;100519.56;5379877;32;33133;-63
2023/04/04 09:52:59;;;;;;;;;;;;;;;8.25;28.64;100519.34;5362602;32;34684;-73
2023/04/04 09:56:01;;;;;;;;;;;;;;;8.46;28.37;100516.16;5363026;32;32985;-65
2023/04/04 09:59:05;;;;;;;;;;;;;;;10.04;26.97;100502.38;5356303;32;34165;-67
2023/04/04 10:02:08;;;;;;;;;;;;;;;9.00;27.37;100512.81;5365350;32;36121;-66
2023/04/04 10:05:10;;;;;;;;;;;;;;;9.32;27.24;100517.06;5328306;32;44158;-71
2023/04/04 10:08:14;;;;;;;;;;;;;;;10.56;26.01;100515.44;5350898;32;32128;-74
2023/04/04 10:11:27;;;;;;;;;;;;;;;10.55;26.08;100501.44;5373001;32;33039;-64
2023/04/04 10:14:33;;;;;;;;;;;;;;;9.77;25.98;100519.94;5360340;32;35047;-65
2023/04/04 10:17:37;;;;;;;;;;;;;;;9.74;26.52;100517.44;5371238;32;34646;-63
2023/04/04 10:20:40;;;;;;;;;;;;;;;9.72;26.71;100510.50;5353114;32;44694;-63
2023/04/04 10:23:45;;;;;;;;;;;;;;;11.05;25.06;100497.81;5362535;32;34346;-64
2023/04/04 10:26:47;;;;;;;;;;;;;;;8.57;28.00;100494.91;5362885;32;34734;-63
2023/04/04 10:29:49;;;;;;;;;;;;;;;8.64;28.27;100502.53;5362748;32;32973;-66
2023/04/04 10:32:56;;;;;;;;;;;;;;;10.12;25.99;100485.50;5369552;32;32563;-64
2023/04/04 10:36:00;;;;;;;;;;;;;;;9.13;27.51;100476.56;5362654;32;34364;-64
2023/04/04 10:39:05;;;;;;;;;;;;;;;9.60;26.49;100484.69;5360723;32;33243;-65
2023/04/04 10:42:07;;;;;;;;;;;;;;;8.81;27.62;100486.28;5357019;32;35593;-68
2023/04/04 10:45:10;;;;;;;;;;;;;;;9.06;26.71;100488.16;5365846;32;44681;-63
2023/04/04 10:48:22;;;;;;;;;;;;;;;8.62;27.69;100488.59;5376512;32;34104;-64
2023/04/04 10:51:25;;;;;;;;;;;;;;;10.18;25.40;100485.28;5364423;32;33249;-65
2023/04/04 10:54:27;;;;;;;;;;;;;;;9.48;26.22;100488.56;5359636;32;33545;-65
2023/04/04 10:57:30;;;;;;;;;;;;;;;10.78;25.25;100481.31;5360752;32;32565;-72
2023/04/04 11:00:32;;;;;;;;;;;;;;;11.32;24.44;100467.75;5363915;32;34279;-71
2023/04/04 11:03:56;;;;;;;;;;;;;;;10.67;25.36;100468.59;5358406;32;34601;-64
2023/04/04 11:07:17;;;;;;;;;;;;;;;10.94;25.02;100473.69;5355831;32;32391;-66
2023/04/04 11:10:22;;;;;;;;;;;;;;;11.82;23.57;100470.09;5371336;32;33229;-69
2023/04/04 11:13:26;;;;;;;;;;;;;;;11.27;24.02;100468.84;5364722;32;33048;-67
2023/04/04 11:16:34;;;;;;;;;;;;;;;11.34;24.19;100467.72;5369633;32;33179;-72
2023/04/04 11:19:39;;;;;;;;;;;;;;;9.74;25.86;100461.44;5375233;32;33276;-67
2023/04/04 11:22:44;;;;;;;;;;;;;;;12.35;23.21;100456.31;5356718;32;45082;-69
2023/04/04 11:25:53;;;;;;;;;;;;;;;14.27;21.10;100450.41;5374926;32;34225;-66
2023/04/04 11:28:56;;;;;;;;;;;;;;;13.25;22.30;100449.44;5359882;32;34641;-65
2023/04/04 11:31:58;;;;;;;;;;;;;;;14.24;20.79;100445.31;5357423;32;33006;-66
2023/04/04 11:35:00;;;;;;;;;;;;;;;14.03;21.22;100442.84;5360800;32;32974;-70
2023/04/04 11:38:02;;;;;;;;;;;;;;;14.29;20.83;100448.53;5357979;32;34226;-66
2023/04/04 11:41:06;;;;;;;;;;;;;;;16.02;19.22;100434.25;5375898;32;33062;-73
2023/04/04 11:44:08;;;;;;;;;;;;;;;14.23;20.56;100430.34;5363927;32;46302;-65
2023/04/04 11:47:12;;;;;;;;;;;;;;;13.86;21.27;100437.59;5358887;32;33604;-68
2023/04/04 11:50:18;;;;;;;;;;;;;;;11.98;23.04;100436.06;5363725;32;33048;-67
2023/04/04 11:53:20;;;;;;;;;;;;;;;12.04;23.33;100434.91;5373772;32;33234;-64
2023/04/04 11:56:22;;;;;;;;;;;;;;;13.42;21.93;100427.50;5363127;32;32870;-66
2023/04/04 11:59:24;;;;;;;;;;;;;;;14.82;20.23;100431.59;5367656;32;33105;-66
2023/04/04 12:02:30;;;;;;;;;;;;;;;15.37;19.20;100415.19;5364730;32;34417;-67
2023/04/04 12:05:33;;;;;;;;;;;;;;;12.81;21.53;100419.91;5345403;32;33308;-67
2023/04/04 12:08:35;;;;;;;;;;;;;;;12.77;22.06;100415.72;5370381;32;33163;-70
2023/04/04 12:11:37;;;;;;;;;;;;;;;15.16;19.81;100401.41;5362306;32;33771;-63
2023/04/04 12:14:39;;;;;;;;;;;;;;;15.17;19.54;100403.09;5372082;32;44303;-65
2023/04/04 12:17:42;;;;;;;;;;;;;;;14.70;20.02;100411.09;5370506;32;33026;-67
2023/04/04 12:20:46;;;;;;;;;;;;;;;15.42;19.21;100389.28;5362903;32;32973;-66
2023/04/04 12:23:48;;;;;;;;;;;;;;;13.74;21.11;100395.97;5376348;32;33071;-67
2023/04/04 12:26:51;;;;;;;;;;;;;;;15.49;19.75;100380.03;5367192;32;32124;-64
2023/04/04 12:29:53;;;;;;;;;;;;;;;14.67;19.52;100375.06;5379558;32;34264;-69
2023/04/04 12:32:55;;;;;;;;;;;;;;;15.04;19.68;100362.41;5369285;32;34697;-69
2023/04/04 12:35:58;;;;;;;;;;;;;;;12.90;21.89;100395.75;5361456;32;34354;-68
2023/04/04 12:39:01;;;;;;;;;;;;;;;12.95;21.89;100385.81;5371571;32;33035;-65
2023/04/04 12:42:03;;;;;;;;;;;;;;;12.79;22.00;100384.84;5368230;32;36716;-61
2023/04/04 12:45:06;;;;;;;;;;;;;;;12.51;22.45;100384.47;5383370;32;34881;-65
2023/04/04 12:48:12;;;;;;;;;;;;;;;12.58;22.43;100392.00;5358801;32;33859;-66
2023/04/04 12:51:17;;;;;;;;;;;;;;;11.90;23.07;100381.06;5377651;32;45262;-66
2023/04/04 12:54:26;;;;;;;;;;;;;;;11.55;23.78;100379.09;5371791;32;33057;-63
2023/04/04 12:57:29;;;;;;;;;;;;;;;13.23;21.52;100369.50;5363830;32;33535;-62
2023/04/04 13:00:31;;;;;;;;;;;;;;;12.49;23.03;100376.59;5383919;32;33049;-66
2023/04/04 13:03:33;;;;;;;;;;;;;;;11.87;23.67;100375.09;5365780;32;33068;-66
2023/04/04 13:06:35;;;;;;;;;;;;;;;13.19;22.39;100362.63;5367085;32;33189;-65
2023/04/04 13:09:46;;;;;;;;;;;;;;;15.09;20.34;100353.25;5364814;32;33483;-61
2023/04/04 13:12:55;;;;;;;;;;;;;;;12.51;22.66;100368.66;5376580;32;43208;-77
2023/04/04 13:15:58;;;;;;;;;;;;;;;11.85;23.65;100363.75;5377622;32;34121;-67
2023/04/04 13:19:00;;;;;;;;;;;;;;;12.30;23.19;100360.81;5371719;32;33604;-61
2023/04/04 13:22:02;;;;;;;;;;;;;;;12.17;23.22;100335.94;5378133;32;33027;-62
2023/04/04 13:25:04;;;;;;;;;;;;;;;12.30;22.61;100366.09;5368136;32;33011;-62
2023/04/04 13:28:06;;;;;;;;;;;;;;;11.62;23.33;100372.66;5387398;32;33206;-63
2023/04/04 13:31:09;;;;;;;;;;;;;;;11.88;23.01;100356.59;5376151;32;43780;-66
2023/04/04 13:34:11;;;;;;;;;;;;;;;12.00;23.43;100364.88;5379418;32;33263;-65
2023/04/04 13:37:13;;;;;;;;;;;;;;;11.68;23.52;100355.72;5372023;32;33234;-71
2023/04/04 13:40:15;;;;;;;;;;;;;;;11.89;23.30;100358.28;5363959;32;32996;-63
2023/04/04 13:43:17;;;;;;;;;;;;;;;11.90;23.40;100356.50;5384433;32;35154;-65
2023/04/04 13:46:19;;;;;;;;;;;;;;;11.11;24.27;100359.00;5373244;32;35284;-69
2023/04/04 13:49:21;;;;;;;;;;;;;;;12.01;22.89;100348.97;5379376;32;33503;-61
2023/04/04 13:52:23;;;;;;;;;;;;;;;10.39;25.01;100362.81;5363259;32;33450;-65
2023/04/04 13:55:26;;;;;;;;;;;;;;;11.80;23.83;100355.19;5376599;32;33003;-69
2023/04/04 13:58:28;;;;;;;;;;;;;;;12.39;23.09;100338.44;5369288;32;33133;-71
2023/04/04 14:01:30;;;;;;;;;;;;;;;11.70;23.16;100345.97;5361003;32;32987;-66
2023/04/04 14:04:32;;;;;;;;;;;;;;;11.79;23.14;100343.81;5362125;32;34263;-68
2023/04/04 14:07:37;;;;;;;;;;;;;;;11.02;24.03;100353.28;5341907;32;31982;-67
2023/04/04 14:10:39;;;;;;;;;;;;;;;11.49;23.52;100351.25;5369839;32;44744;-68
2023/04/04 14:13:42;;;;;;;;;;;;;;;11.71;23.82;100345.91;5359435;32;32555;-66
2023/04/04 14:16:44;;;;;;;;;;;;;;;12.05;23.21;100344.44;5363697;32;34192;-65
2023/04/04 14:19:46;;;;;;;;;;;;;;;11.54;24.02;100349.28;5366913;32;35036;-66
2023/04/04 14:22:48;;;;;;;;;;;;;;;11.15;24.30;100349.22;5359843;32;32947;-67
2023/04/04 14:25:50;;;;;;;;;;;;;;;11.51;24.18;100349.41;5373229;32;33382;-65
2023/04/04 14:28:52;;;;;;;;;;;;;;;12.20;23.55;100352.47;5360196;32;32968;-66
2023/04/04 14:31:57;;;;;;;;;;;;;;;11.54;23.69;100349.28;5373848;32;32972;-67
2023/04/04 14:34:59;;;;;;;;;;;;;;;11.27;23.74;100340.81;5357964;32;34251;-66
2023/04/04 14:38:01;;;;;;;;;;;;;;;10.47;25.06;100352.87;5364680;32;33028;-65
2023/04/04 14:41:03;;;;;;;;;;;;;;;11.33;23.92;100351.09;5373418;32;33579;-66
2023/04/04 14:44:05;;;;;;;;;;;;;;;11.48;24.40;100354.81;5364464;32;33064;-67
2023/04/04 14:47:08;;;;;;;;;;;;;;;11.61;24.11;100345.47;5358772;32;34032;-66
2023/04/04 14:50:10;;;;;;;;;;;;;;;11.21;24.58;100356.00;5362442;32;44451;-66
2023/04/04 14:53:12;;;;;;;;;;;;;;;10.92;24.94;100355.44;5378302;32;32387;-66
2023/04/04 14:56:13;;;;;;;;;;;;;;;11.88;23.50;100361.84;5363137;32;33351;-66
2023/04/04 14:59:15;;;;;;;;;;;;;;;11.04;24.68;100354.94;5367160;32;34437;-66
2023/04/04 15:02:17;;;;;;;;;;;;;;;10.41;25.20;100353.09;5374727;32;33685;-67
2023/04/04 15:05:19;;;;;;;;;;;;;;;10.75;24.87;100363.13;5337342;32;33007;-65
2023/04/04 15:08:22;;;;;;;;;;;;;;;10.62;25.13;100369.78;5376961;32;32098;-64
2023/04/04 15:11:25;;;;;;;;;;;;;;;10.70;25.24;100360.72;5359609;32;32982;-67
2023/04/04 15:14:27;;;;;;;;;;;;;;;11.25;24.53;100357.56;5376736;32;33038;-64
2023/04/04 15:17:29;;;;;;;;;;;;;;;11.65;23.86;100359.34;5366706;32;33052;-66
2023/04/04 15:20:31;;;;;;;;;;;;;;;10.62;25.38;100365.38;5364431;32;33619;-65
2023/04/04 15:23:33;;;;;;;;;;;;;;;9.87;26.29;100372.63;5373090;32;34264;-66
2023/04/04 15:26:35;;;;;;;;;;;;;;;11.35;24.72;100366.81;5349830;32;33703;-65
2023/04/04 15:29:37;;;;;;;;;;;;;;;11.49;24.53;100364.44;5375542;32;33190;-65
2023/04/04 15:32:39;;;;;;;;;;;;;;;10.72;25.08;100369.37;5361555;32;44633;-66
2023/04/04 15:35:41;;;;;;;;;;;;;;;10.07;26.25;100378.00;5371215;32;33512;-66
2023/04/04 15:38:43;;;;;;;;;;;;;;;10.53;25.73;100360.50;5364712;32;34416;-66
2023/04/04 15:41:45;;;;;;;;;;;;;;;10.57;26.03;100372.63;5363496;32;35120;-66
2023/04/04 15:44:47;;;;;;;;;;;;;;;9.92;26.50;100376.81;5373836;32;33308;-65